createdAt,value
2022-09-10T00:01:42.311Z,99.90
2022-09-10T00:04:16.005Z,99.90
2022-09-10T00:06:45.668Z,99.90
2022-09-10T00:09:15.443Z,99.90
2022-09-10T00:11:46.948Z,99.90
2022-09-10T00:14:18.881Z,99.90
2022-09-10T00:16:47.838Z,99.90
2022-09-10T00:19:17.761Z,99.90
2022-09-10T00:21:46.885Z,99.90
2022-09-10T00:24:16.063Z,99.90
2022-09-10T00:26:45.013Z,99.90
2022-09-10T00:29:17.050Z,99.90
2022-09-10T00:31:46.280Z,99.90
2022-09-10T00:34:16.669Z,99.90
2022-09-10T00:36:46.284Z,99.90
2022-09-10T00:39:18.847Z,99.90
2022-09-10T00:41:49.488Z,99.90
2022-09-10T00:44:42.471Z,99.90
2022-09-10T00:47:23.618Z,99.90
2022-09-10T00:50:02.490Z,99.90
2022-09-10T00:52:31.495Z,99.90
2022-09-10T00:55:01.103Z,99.90
2022-09-10T00:57:31.223Z,99.90
2022-09-10T01:00:09.351Z,99.90
2022-09-10T01:02:38.256Z,99.90
2022-09-10T01:05:10.290Z,99.90
2022-09-10T01:07:40.246Z,99.90
2022-09-10T01:10:19.215Z,99.90
2022-09-10T01:13:06.408Z,99.90
2022-09-10T01:15:55.811Z,99.90
2022-09-10T01:18:33.758Z,99.90
2022-09-10T01:21:20.948Z,99.90
2022-09-10T01:24:25.476Z,99.90
2022-09-10T01:27:09.628Z,99.90
2022-09-10T01:29:38.176Z,99.90
2022-09-10T01:32:16.534Z,99.60
2022-09-10T01:35:06.444Z,99.50
2022-09-10T01:37:39.777Z,99.10
2022-09-10T01:40:09.905Z,98.90
2022-09-10T01:42:40.868Z,98.70
2022-09-10T01:45:16.290Z,98.50
2022-09-10T01:48:04.899Z,98.30
2022-09-10T01:50:49.682Z,97.90
2022-09-10T01:53:45.156Z,97.80
2022-09-10T01:56:42.057Z,97.70
2022-09-10T01:59:49.292Z,97.60
2022-09-10T02:02:31.186Z,97.40
2022-09-10T02:05:02.521Z,97.40
2022-09-10T02:07:33.252Z,97.30
2022-09-10T02:10:04.166Z,97.30
2022-09-10T02:12:33.301Z,97.30
2022-09-10T02:15:02.680Z,97.20
2022-09-10T02:17:35.488Z,97.10
2022-09-10T02:20:09.723Z,97.00
2022-09-10T02:22:41.049Z,97.00
2022-09-10T02:25:11.068Z,96.80
2022-09-10T02:27:40.310Z,96.60
2022-09-10T02:30:09.774Z,96.50
2022-09-10T02:32:38.707Z,96.30
2022-09-10T02:35:08.275Z,96.10
2022-09-10T02:37:37.453Z,95.90
2022-09-10T02:40:07.379Z,95.90
2022-09-10T02:42:36.645Z,95.90
2022-09-10T02:45:06.308Z,95.90
2022-09-10T02:47:35.301Z,95.80
2022-09-10T02:50:04.258Z,95.60
2022-09-10T02:52:33.189Z,95.60
2022-09-10T02:55:02.559Z,95.50
2022-09-10T02:57:32.149Z,95.50
2022-09-10T03:00:01.110Z,95.20
2022-09-10T03:02:30.064Z,95.10
2022-09-10T03:04:58.971Z,95.10
2022-09-10T03:07:27.893Z,95.00
2022-09-10T03:09:56.816Z,94.50
2022-09-10T03:12:25.716Z,94.50
2022-09-10T03:14:54.676Z,94.50
2022-09-10T03:17:23.642Z,94.20
2022-09-10T03:19:53.050Z,94.00
2022-09-10T03:22:22.016Z,93.60
2022-09-10T03:24:51.225Z,93.30
2022-09-10T03:27:21.684Z,93.40
2022-09-10T03:29:50.594Z,93.40
2022-09-10T03:32:19.723Z,93.30
2022-09-10T03:34:50.277Z,93.20
2022-09-10T03:37:19.280Z,92.70
2022-09-10T03:39:48.278Z,92.90
2022-09-10T03:42:17.651Z,92.60
2022-09-10T03:44:46.560Z,92.20
2022-09-10T03:47:15.493Z,91.50
2022-09-10T03:49:44.367Z,91.80
2022-09-10T03:52:13.914Z,91.90
2022-09-10T03:54:42.741Z,91.10
2022-09-10T03:57:11.733Z,91.40
2022-09-10T03:59:42.258Z,91.90
2022-09-10T04:02:11.159Z,91.40
2022-09-10T04:04:40.216Z,91.40
2022-09-10T04:07:09.214Z,91.60
2022-09-10T04:09:38.533Z,91.80
2022-09-10T04:12:07.716Z,91.40
2022-09-10T04:14:36.651Z,90.70
2022-09-10T04:17:05.654Z,90.80
2022-09-10T04:19:34.617Z,91.00
2022-09-10T04:22:04.216Z,91.00
2022-09-10T04:24:33.101Z,91.00
2022-09-10T04:27:02.713Z,91.20
2022-09-10T04:29:32.584Z,91.30
2022-09-10T04:32:01.585Z,91.20
2022-09-10T04:34:30.561Z,90.90
2022-09-10T04:36:59.480Z,90.90
2022-09-10T04:39:28.443Z,90.90
2022-09-10T04:41:57.315Z,90.50
2022-09-10T04:44:26.502Z,90.20
2022-09-10T04:46:55.442Z,90.30
2022-09-10T04:49:24.376Z,88.20
2022-09-10T04:51:53.355Z,89.00
2022-09-10T04:54:22.245Z,89.00
2022-09-10T04:56:51.630Z,86.50
2022-09-10T04:59:20.497Z,87.40
2022-09-10T05:01:52.458Z,87.60
2022-09-10T05:04:21.458Z,87.60
2022-09-10T05:06:51.372Z,87.20
2022-09-10T05:09:20.898Z,88.00
2022-09-10T05:11:50.901Z,86.30
2022-09-10T05:14:19.806Z,86.20
2022-09-10T05:16:49.422Z,87.70
2022-09-10T05:19:19.199Z,86.70
2022-09-10T05:21:52.192Z,85.90
2022-09-10T05:24:21.148Z,85.90
2022-09-10T05:26:50.047Z,84.80
2022-09-10T05:29:19.540Z,85.70
2022-09-10T05:31:48.698Z,85.50
2022-09-10T05:34:17.671Z,86.30
2022-09-10T05:36:46.540Z,86.80
2022-09-10T05:39:16.894Z,86.00
2022-09-10T05:41:45.844Z,85.10
2022-09-10T05:44:16.314Z,84.50
2022-09-10T05:46:45.839Z,84.70
2022-09-10T05:49:15.092Z,83.90
2022-09-10T05:51:44.013Z,84.10
2022-09-10T05:54:13.838Z,83.80
2022-09-10T05:56:43.356Z,84.50
2022-09-10T05:59:12.243Z,84.60
2022-09-10T06:01:41.250Z,85.50
2022-09-10T06:04:12.461Z,84.70
2022-09-10T06:06:41.357Z,85.40
2022-09-10T06:09:10.801Z,84.40
2022-09-10T06:11:39.798Z,85.30
2022-09-10T06:14:08.862Z,85.20
2022-09-10T06:16:37.904Z,85.90
2022-09-10T06:19:07.178Z,85.80
2022-09-10T06:21:36.374Z,85.30
2022-09-10T06:24:05.339Z,86.00
2022-09-10T06:26:34.273Z,85.90
2022-09-10T06:29:03.257Z,85.00
2022-09-10T06:31:32.328Z,85.00
2022-09-10T06:34:01.179Z,84.80
2022-09-10T06:36:30.506Z,84.90
2022-09-10T06:38:59.496Z,84.70
2022-09-10T06:41:28.698Z,84.30
2022-09-10T06:43:57.852Z,84.80
2022-09-10T06:49:17.001Z,84.50
2022-09-10T06:51:45.895Z,85.20
2022-09-10T06:54:14.814Z,85.00
2022-09-10T06:56:44.001Z,84.30
2022-09-10T06:59:15.335Z,83.90
2022-09-10T07:01:44.243Z,84.20
2022-09-10T07:04:13.173Z,84.00
2022-09-10T07:06:42.154Z,83.40
2022-09-10T07:09:11.255Z,83.70
2022-09-10T07:11:41.764Z,83.20
2022-09-10T07:14:14.989Z,83.50
2022-09-10T07:16:45.530Z,84.40
2022-09-10T07:19:16.167Z,83.10
2022-09-10T07:21:45.953Z,82.80
2022-09-10T07:24:15.595Z,83.30
2022-09-10T07:26:44.864Z,83.20
2022-09-10T07:29:14.072Z,82.90
2022-09-10T07:31:43.974Z,83.30
2022-09-10T07:34:15.350Z,83.60
2022-09-10T07:36:44.226Z,83.00
2022-09-10T07:39:13.161Z,83.10
2022-09-10T07:41:42.035Z,83.60
2022-09-10T07:44:10.928Z,83.60
2022-09-10T07:46:40.111Z,84.40
2022-09-10T07:49:10.500Z,84.30
2022-09-10T07:51:40.516Z,84.30
2022-09-10T07:54:09.472Z,84.70
2022-09-10T07:56:39.033Z,85.00
2022-09-10T07:59:08.060Z,84.80
2022-09-10T08:01:36.971Z,84.80
2022-09-10T08:04:06.552Z,85.40
2022-09-10T08:06:35.802Z,85.30
2022-09-10T08:09:09.459Z,85.70
2022-09-10T08:11:37.951Z,85.70
2022-09-10T08:14:07.125Z,84.00
2022-09-10T08:16:40.175Z,85.60
2022-09-10T08:19:12.701Z,85.80
2022-09-10T08:21:41.910Z,86.00
2022-09-10T08:24:11.882Z,85.90
2022-09-10T08:26:41.285Z,86.10
2022-09-10T08:29:10.289Z,83.60
2022-09-10T08:31:40.237Z,86.30
2022-09-10T08:34:12.280Z,84.70
2022-09-10T08:36:41.368Z,86.10
2022-09-10T08:39:10.903Z,87.00
2022-09-10T08:41:39.840Z,88.10
2022-09-10T08:44:29.369Z,88.90
2022-09-10T08:47:14.932Z,89.60
2022-09-10T08:49:57.967Z,90.30
2022-09-10T08:52:30.287Z,90.80
2022-09-10T08:55:17.874Z,91.20
2022-09-10T08:58:16.807Z,91.40
2022-09-10T09:00:46.882Z,91.80
2022-09-10T09:03:35.411Z,91.80
2022-09-10T09:06:11.142Z,92.00
2022-09-10T09:08:49.440Z,92.20
2022-09-10T09:11:33.734Z,92.30
2022-09-10T09:14:34.611Z,92.40
2022-09-10T09:17:22.103Z,92.90
2022-09-10T09:20:07.056Z,92.70
2022-09-10T09:23:05.088Z,92.90
2022-09-10T09:25:39.849Z,93.20
2022-09-10T09:28:28.044Z,93.20
2022-09-10T09:30:59.227Z,93.40
2022-09-10T09:33:32.012Z,93.60
2022-09-10T09:36:03.191Z,93.70
2022-09-10T09:38:42.730Z,93.70
2022-09-10T09:41:29.998Z,93.80
2022-09-10T09:44:11.930Z,94.60
2022-09-10T09:46:41.011Z,93.80
2022-09-10T09:49:18.427Z,93.80
2022-09-10T09:51:49.869Z,94.00
2022-09-10T09:55:10.285Z,94.00
2022-09-10T09:57:20.756Z,94.00
2022-09-10T09:59:51.541Z,93.90
2022-09-10T10:02:31.534Z,93.90
2022-09-10T10:05:11.286Z,94.00
2022-09-10T10:07:40.394Z,94.30
2022-09-10T10:10:23.490Z,94.20
2022-09-10T10:12:55.465Z,94.60
2022-09-10T10:15:43.549Z,95.30
2022-09-10T10:18:25.182Z,96.00
2022-09-10T10:21:12.702Z,96.40
2022-09-10T10:23:41.871Z,95.60
2022-09-10T10:26:22.738Z,95.80
2022-09-10T10:29:02.618Z,95.60
2022-09-10T10:31:45.189Z,95.70
2022-09-10T10:34:16.771Z,95.90
2022-09-10T10:37:10.012Z,95.70
2022-09-10T10:40:02.101Z,96.30
2022-09-10T10:42:41.734Z,96.60
2022-09-10T10:45:32.338Z,96.20
2022-09-10T10:48:38.296Z,96.10
2022-09-10T10:51:18.414Z,96.30
2022-09-10T10:54:08.592Z,95.90
2022-09-10T10:56:58.230Z,96.40
2022-09-10T10:59:52.275Z,95.80
2022-09-10T11:02:36.870Z,96.00
2022-09-10T11:05:44.666Z,96.00
2022-09-10T11:08:32.398Z,96.30
2022-09-10T11:11:26.578Z,96.50
2022-09-10T11:14:24.317Z,96.40
2022-09-10T11:17:04.457Z,96.40
2022-09-10T11:20:05.341Z,96.50
2022-09-10T11:22:50.038Z,96.30
2022-09-10T11:25:33.847Z,96.30
2022-09-10T11:28:17.920Z,96.50
2022-09-10T11:30:51.775Z,96.60
2022-09-10T11:33:32.506Z,96.40
2022-09-10T11:36:32.322Z,96.50
2022-09-10T11:39:19.666Z,96.90
2022-09-10T11:41:50.285Z,96.60
2022-09-10T11:44:51.568Z,96.60
2022-09-10T11:47:41.804Z,96.60
2022-09-10T11:50:34.778Z,97.20
2022-09-10T11:53:08.570Z,97.30
2022-09-10T11:56:06.249Z,97.00
2022-09-10T11:59:03.626Z,97.60
2022-09-10T12:01:41.662Z,97.80
2022-09-10T12:04:39.786Z,97.30
2022-09-10T12:07:46.514Z,97.30
2022-09-10T12:10:42.458Z,97.80
2022-09-10T12:13:14.767Z,98.10
2022-09-10T12:15:53.196Z,97.60
2022-09-10T12:18:27.153Z,97.70
2022-09-10T12:20:58.203Z,97.60
2022-09-10T12:23:34.805Z,99.00
2022-09-10T12:26:17.557Z,98.10
2022-09-10T12:29:03.026Z,98.10
2022-09-10T12:32:13.866Z,98.10
2022-09-10T12:34:43.171Z,98.40
2022-09-10T12:37:12.275Z,98.20
2022-09-10T12:39:41.291Z,98.30
2022-09-10T12:42:35.756Z,98.30
2022-09-10T12:45:05.343Z,98.40
2022-09-10T12:47:44.765Z,98.00
2022-09-10T12:50:31.066Z,98.20
2022-09-10T12:53:32.527Z,98.70
2022-09-10T12:56:23.317Z,98.90
2022-09-10T12:59:21.487Z,98.70
2022-09-10T13:01:53.182Z,98.70
2022-09-10T13:04:38.603Z,98.40
2022-09-10T13:07:26.308Z,98.40
2022-09-10T13:10:07.839Z,98.60
2022-09-10T13:12:38.755Z,98.50
2022-09-10T13:15:08.502Z,98.60
2022-09-10T13:18:01.455Z,98.60
2022-09-10T13:20:35.678Z,98.60
2022-09-10T13:23:20.635Z,98.80
2022-09-10T13:25:51.471Z,98.90
2022-09-10T13:28:33.963Z,98.90
2022-09-10T13:31:10.308Z,99.00
2022-09-10T13:34:01.944Z,98.80
2022-09-10T13:37:16.146Z,99.30
2022-09-10T13:40:01.345Z,99.30
2022-09-10T13:43:04.389Z,99.10
2022-09-10T13:45:42.549Z,99.50
2022-09-10T13:48:35.738Z,99.30
2022-09-10T13:51:22.595Z,99.50
2022-09-10T13:53:53.886Z,99.40
2022-09-10T13:56:29.066Z,99.20
2022-09-10T13:59:02.645Z,99.40
2022-09-10T14:01:51.497Z,99.00
2022-09-10T14:04:44.768Z,99.80
2022-09-10T14:07:20.296Z,99.50
2022-09-10T14:09:53.364Z,99.10
2022-09-10T14:12:27.660Z,99.00
2022-09-10T14:15:00.249Z,98.80
2022-09-10T14:17:52.416Z,98.60
2022-09-10T14:20:33.076Z,99.10
2022-09-10T14:23:18.605Z,98.60
2022-09-10T14:25:47.754Z,98.40
2022-09-10T14:28:30.958Z,98.20
2022-09-10T14:31:28.994Z,98.40
2022-09-10T14:33:59.605Z,98.40
2022-09-10T14:36:32.095Z,98.20
2022-09-10T14:39:05.666Z,98.20
2022-09-10T14:41:37.184Z,98.40
2022-09-10T14:44:40.515Z,98.50
2022-09-10T14:47:12.415Z,98.60
2022-09-10T14:49:42.947Z,98.10
2022-09-10T14:52:13.630Z,98.10
2022-09-10T14:54:43.033Z,98.10
2022-09-10T14:57:17.962Z,98.30
2022-09-10T14:59:52.206Z,98.30
2022-09-10T15:02:28.316Z,98.20
2022-09-10T15:04:57.546Z,98.40
2022-09-10T15:07:26.506Z,98.50
2022-09-10T15:09:56.287Z,98.40
2022-09-10T15:12:25.261Z,98.70
2022-09-10T15:14:54.494Z,98.80
2022-09-10T15:17:23.697Z,98.80
2022-09-10T15:19:53.281Z,98.70
2022-09-10T15:22:28.202Z,98.70
2022-09-10T15:25:12.843Z,98.90
2022-09-10T15:27:43.001Z,99.00
2022-09-10T15:30:12.263Z,99.30
2022-09-10T15:32:41.574Z,99.50
2022-09-10T15:35:10.932Z,99.20
2022-09-10T15:37:39.823Z,99.20
2022-09-10T15:40:10.481Z,99.10
2022-09-10T15:42:39.540Z,99.30
2022-09-10T15:45:09.737Z,99.90
2022-09-10T15:47:38.708Z,99.90
2022-09-10T15:50:08.373Z,99.60
2022-09-10T15:52:37.298Z,99.30
2022-09-10T15:55:08.016Z,99.60
2022-09-10T15:57:37.324Z,99.90
2022-09-10T16:00:07.853Z,99.90
2022-09-10T16:02:36.899Z,99.90
2022-09-10T16:05:07.534Z,99.90
2022-09-10T16:07:37.089Z,99.90
2022-09-10T16:10:07.514Z,99.90
2022-09-10T16:12:36.519Z,99.90
2022-09-10T16:15:06.202Z,99.90
2022-09-10T16:17:35.256Z,99.90
2022-09-10T16:20:04.750Z,99.90
2022-09-10T16:22:33.778Z,99.90
2022-09-10T16:25:02.735Z,99.90
2022-09-10T16:27:32.357Z,99.60
2022-09-10T16:30:01.333Z,99.90
2022-09-10T16:32:30.500Z,99.90
2022-09-10T16:35:01.530Z,99.80
2022-09-10T16:37:30.766Z,99.60
2022-09-10T16:39:59.736Z,99.40
2022-09-10T16:42:30.352Z,99.50
2022-09-10T16:44:59.396Z,99.50
2022-09-10T16:47:31.668Z,99.90
2022-09-10T16:50:00.968Z,99.90
2022-09-10T16:52:30.389Z,99.90
2022-09-10T16:54:59.285Z,99.90
2022-09-10T16:57:28.186Z,99.70
2022-09-10T16:59:57.502Z,99.70
2022-09-10T17:02:27.012Z,99.90
2022-09-10T17:04:58.009Z,99.90
2022-09-10T17:07:27.087Z,99.90
2022-09-10T17:10:00.539Z,99.90
2022-09-10T17:12:29.987Z,99.90
2022-09-10T17:14:58.962Z,99.90
2022-09-10T17:17:28.389Z,99.90
2022-09-10T17:19:57.828Z,99.90
2022-09-10T17:22:28.184Z,99.90
2022-09-10T17:24:57.224Z,99.90
2022-09-10T17:27:26.215Z,99.90
2022-09-10T17:29:55.206Z,99.90
2022-09-10T17:32:24.335Z,99.90
2022-09-10T17:34:53.370Z,99.90
2022-09-10T17:37:22.337Z,99.90
2022-09-10T17:39:52.746Z,99.90
2022-09-10T17:42:21.710Z,99.90
2022-09-10T17:44:53.182Z,99.90
2022-09-10T17:47:22.089Z,99.90
2022-09-10T17:49:51.921Z,99.90
2022-09-10T17:52:20.885Z,99.90
2022-09-10T17:54:50.408Z,99.90
2022-09-10T17:57:19.836Z,99.90
2022-09-10T17:59:48.753Z,99.90
2022-09-10T18:02:20.157Z,99.90
2022-09-10T18:04:51.489Z,99.90
2022-09-10T18:07:20.472Z,99.90
2022-09-10T18:09:49.991Z,99.90
2022-09-10T18:12:18.881Z,99.90
2022-09-10T18:14:47.806Z,99.90
2022-09-10T18:17:16.930Z,99.90
2022-09-10T18:19:45.830Z,99.90
2022-09-10T18:22:14.744Z,99.90
2022-09-10T18:24:43.731Z,99.90
2022-09-10T18:27:13.351Z,99.90
2022-09-10T18:29:43.433Z,99.90
2022-09-10T18:32:12.384Z,99.90
2022-09-10T18:34:41.660Z,99.90
2022-09-10T18:37:10.951Z,99.90
2022-09-10T18:39:39.951Z,99.90
2022-09-10T18:42:10.128Z,99.90
2022-09-10T18:44:41.435Z,99.90
2022-09-10T18:47:27.939Z,99.90
2022-09-10T18:50:03.133Z,99.90
2022-09-10T18:52:32.190Z,99.90
2022-09-10T18:55:04.361Z,99.90
2022-09-10T18:57:36.008Z,99.90
2022-09-10T19:00:08.699Z,99.90
2022-09-10T19:02:37.809Z,99.90
2022-09-10T19:05:11.808Z,99.90
2022-09-10T19:07:43.567Z,99.90
2022-09-10T19:10:13.500Z,99.90
2022-09-10T19:12:42.558Z,99.90
2022-09-10T19:15:12.094Z,99.90
2022-09-10T19:17:41.448Z,99.90
2022-09-10T19:20:10.855Z,99.90
2022-09-10T19:22:40.227Z,99.90
2022-09-10T19:25:10.421Z,99.90
2022-09-10T19:27:39.489Z,99.90
2022-09-10T19:30:09.016Z,99.90
2022-09-10T19:32:37.903Z,99.90
2022-09-10T19:35:07.032Z,99.90
2022-09-10T19:37:36.251Z,99.90
2022-09-10T19:40:05.651Z,99.90
2022-09-10T19:42:34.525Z,99.90
2022-09-10T19:45:06.978Z,99.90
2022-09-10T19:47:38.953Z,99.90
2022-09-10T19:50:08.158Z,99.90
2022-09-10T19:52:37.505Z,99.90
2022-09-10T19:55:06.855Z,99.90
2022-09-10T19:57:35.793Z,99.90
2022-09-10T20:00:05.112Z,99.90
2022-09-10T20:02:34.370Z,99.90
2022-09-10T20:05:03.702Z,99.90
2022-09-10T20:07:32.595Z,99.90
2022-09-10T20:10:02.707Z,99.90
2022-09-10T20:12:31.652Z,99.90
2022-09-10T20:15:00.522Z,99.90
2022-09-10T20:17:29.663Z,99.90
2022-09-10T20:19:58.882Z,99.90
2022-09-10T20:22:28.142Z,99.90
2022-09-10T20:24:57.597Z,99.90
2022-09-10T20:27:26.580Z,99.90
2022-09-10T20:29:58.035Z,99.90
2022-09-10T20:32:27.143Z,99.90
2022-09-10T20:34:57.587Z,99.90
2022-09-10T20:37:26.692Z,99.90
2022-09-10T20:39:57.866Z,99.90
2022-09-10T20:42:28.952Z,99.90
2022-09-10T20:44:57.855Z,99.90
2022-09-10T20:47:30.537Z,99.90
2022-09-10T20:49:59.955Z,99.90
2022-09-10T20:52:28.833Z,99.90
2022-09-10T20:54:57.950Z,99.90
2022-09-10T20:57:26.843Z,99.90
2022-09-10T20:59:55.810Z,99.90
2022-09-10T21:02:24.845Z,99.90
2022-09-10T21:04:53.937Z,99.90
2022-09-10T21:07:22.811Z,99.90
2022-09-10T21:09:51.669Z,99.90
2022-09-10T21:12:20.560Z,99.90
2022-09-10T21:14:49.518Z,99.90
2022-09-10T21:17:18.442Z,99.90
2022-09-10T21:19:48.962Z,99.90
2022-09-10T21:22:17.967Z,99.90
2022-09-10T21:24:46.898Z,99.90
2022-09-10T21:27:15.802Z,99.90
2022-09-10T21:29:44.805Z,99.90
2022-09-10T21:32:13.689Z,99.90
2022-09-10T21:34:42.654Z,99.90
2022-09-10T21:37:11.599Z,99.90
2022-09-10T21:39:40.572Z,99.90
2022-09-10T21:42:09.578Z,99.90
2022-09-10T21:44:38.719Z,99.90
2022-09-10T21:47:07.734Z,99.90
2022-09-10T21:49:36.668Z,99.90
2022-09-10T21:52:06.419Z,99.90
2022-09-10T21:54:35.285Z,99.90
2022-09-10T21:57:05.322Z,99.90
2022-09-10T21:59:34.192Z,99.90
2022-09-10T22:02:03.186Z,99.90
2022-09-10T22:04:32.196Z,99.90
2022-09-10T22:07:01.144Z,99.90
2022-09-10T22:09:30.490Z,99.90
2022-09-10T22:12:00.334Z,99.90
2022-09-10T22:14:29.253Z,99.90
2022-09-10T22:16:58.174Z,99.90
2022-09-10T22:19:28.519Z,99.90
2022-09-10T22:21:58.477Z,99.90
2022-09-10T22:24:27.530Z,99.90
2022-09-10T22:26:56.413Z,99.90
2022-09-10T22:29:26.342Z,99.90
2022-09-10T22:31:55.783Z,99.90
2022-09-10T22:34:24.807Z,99.90
2022-09-10T22:36:54.099Z,99.90
2022-09-10T22:39:23.768Z,99.90
2022-09-10T22:41:53.147Z,99.90
2022-09-10T22:44:24.225Z,99.90
2022-09-10T22:46:53.241Z,99.90
2022-09-10T22:49:23.093Z,99.90
2022-09-10T22:51:52.411Z,99.90
2022-09-10T22:54:21.376Z,99.90
2022-09-10T22:56:50.469Z,99.90
2022-09-10T22:59:19.785Z,99.90
2022-09-10T23:01:48.847Z,99.90
2022-09-10T23:04:18.326Z,99.90
2022-09-10T23:06:47.264Z,99.90
2022-09-10T23:09:18.548Z,99.90
2022-09-10T23:11:48.198Z,99.90
2022-09-10T23:14:23.084Z,99.90
2022-09-10T23:16:52.988Z,99.90
2022-09-10T23:19:24.180Z,99.90
2022-09-10T23:21:56.893Z,99.90
2022-09-10T23:24:27.635Z,99.90
2022-09-10T23:26:56.635Z,99.90
2022-09-10T23:29:25.601Z,99.90
2022-09-10T23:31:55.460Z,99.90
2022-09-10T23:34:24.913Z,99.90
2022-09-10T23:36:54.406Z,99.90
2022-09-10T23:39:25.101Z,99.90
2022-09-10T23:41:56.660Z,99.90
2022-09-10T23:44:26.535Z,99.90
2022-09-10T23:46:56.687Z,99.90
2022-09-10T23:49:25.773Z,99.90
2022-09-10T23:51:55.060Z,99.90
2022-09-10T23:54:23.984Z,99.90
2022-09-10T23:56:52.967Z,99.90
2022-09-10T23:59:22.942Z,99.90
